Time;durP1;ratioP1;P1;durP2;ratioP2;P2;SDS_P1;SDS_P2;PMS_P1;PMS_P2;Temp;Humidity;BMP_temperature;BMP_pressure;BME280_temperature;BME280_humidity;BME280_pressure;Samples;Min_cycle;Max_cycle;Signal;HPM_P1;HPM_P2
2022/12/27 00:01:45;;;;;;;;;3.00;3.00;;;;;9.61;57.19;102232.00;5033614;28;45550;-65
2022/12/27 00:04:10;;;;;;;;;2.00;2.00;;;;;9.69;56.99;102242.25;5029580;28;45691;-66
2022/12/27 00:06:36;;;;;;;;;11.25;11.00;;;;;9.69;57.00;102238.69;5034199;28;45426;-66
2022/12/27 00:09:03;;;;;;;;;30.50;24.25;;;;;9.74;57.93;102248.75;5030884;28;46071;-64
2022/12/27 00:11:29;;;;;;;;;3.75;3.75;;;;;9.74;57.77;102250.53;5033701;28;45401;-65
2022/12/27 00:13:58;;;;;;;;;14.25;6.00;;;;;9.76;57.67;102248.84;5023007;28;45560;-66
2022/12/27 00:16:24;;;;;;;;;4.25;4.25;;;;;9.74;57.04;102254.09;5033571;28;45531;-64
2022/12/27 00:18:51;;;;;;;;;9.25;7.00;;;;;9.72;57.71;102246.84;5030057;28;46164;-65
2022/12/27 00:21:18;;;;;;;;;11.50;9.75;;;;;9.74;57.94;102261.19;5030672;28;45810;-66
2022/12/27 00:23:47;;;;;;;;;4.67;4.00;;;;;9.74;57.61;102254.09;5033487;28;45429;-64
2022/12/27 00:26:24;;;;;;;;;6.00;5.00;;;;;9.75;57.74;102252.34;5033534;28;45550;-65
2022/12/27 00:28:49;;;;;;;;;20.25;11.75;;;;;9.80;57.56;102256.19;5033357;28;45934;-65
2022/12/27 00:31:16;;;;;;;;;11.00;7.00;;;;;9.82;57.53;102262.53;5033134;28;45433;-64
2022/12/27 00:33:44;;;;;;;;;10.25;8.50;;;;;9.79;57.22;102251.69;5033655;28;45802;-65
2022/12/27 00:36:16;;;;;;;;;8.00;5.75;;;;;9.87;57.20;102263.69;5027188;28;45368;-66
2022/12/27 00:38:42;;;;;;;;;11.75;7.50;;;;;9.86;57.73;102258.25;5033025;28;46699;-65
2022/12/27 00:41:07;;;;;;;;;14.00;12.00;;;;;9.76;57.03;102244.41;5033356;28;45521;-66
2022/12/27 00:43:33;;;;;;;;;12.00;7.25;;;;;9.84;57.23;102267.94;5033275;28;45388;-66
2022/12/27 00:45:59;;;;;;;;;6.75;4.00;;;;;9.76;57.19;102254.19;5033455;28;45518;-65
2022/12/27 00:48:24;;;;;;;;;5.75;5.75;;;;;9.72;57.51;102260.19;5033201;28;45648;-65
2022/12/27 00:50:56;;;;;;;;;11.00;10.50;;;;;9.72;57.43;102262.88;5032907;28;45452;-65
2022/12/27 00:53:21;;;;;;;;;11.50;5.25;;;;;9.75;57.78;102268.34;5032321;28;45509;-65
2022/12/27 00:55:47;;;;;;;;;5.00;5.00;;;;;9.69;58.21;102268.94;5033056;28;45463;-65
2022/12/27 00:58:12;;;;;;;;;1.25;1.00;;;;;9.65;58.06;102266.97;5014872;28;47314;-64
2022/12/27 01:00:37;;;;;;;;;11.75;10.50;;;;;9.64;58.39;102266.88;5030347;28;45505;-65
2022/12/27 01:03:03;;;;;;;;;3.00;1.00;;;;;9.59;58.17;102272.84;5032901;28;45307;-67
2022/12/27 01:05:28;;;;;;;;;2.00;2.00;;;;;9.64;58.51;102286.47;5033335;28;45362;-65
2022/12/27 01:07:54;;;;;;;;;6.50;5.50;;;;;9.59;58.08;102271.94;5032584;28;45992;-65
2022/12/27 01:10:19;;;;;;;;;6.50;5.00;;;;;9.58;57.76;102275.44;5028861;28;45410;-64
2022/12/27 01:12:44;;;;;;;;;3.75;3.75;;;;;9.59;58.15;102270.19;5033036;28;45490;-65
2022/12/27 01:15:10;;;;;;;;;9.25;7.25;;;;;9.61;58.44;102280.03;5036353;28;45406;-65
2022/12/27 01:17:35;;;;;;;;;9.25;5.50;;;;;9.63;58.00;102283.72;5031549;28;45598;-65
2022/12/27 01:20:01;;;;;;;;;5.25;4.25;;;;;9.60;58.51;102287.09;5036414;28;45310;-65
2022/12/27 01:22:26;;;;;;;;;5.00;4.25;;;;;9.54;58.61;102278.78;5037557;28;45646;-65
2022/12/27 01:24:52;;;;;;;;;2.00;2.00;;;;;9.14;58.73;102202.81;5036734;28;45302;-66
2022/12/27 01:27:17;;;;;;;;;5.75;3.50;;;;;9.59;58.77;102285.28;5036240;28;46437;-65
2022/12/27 01:29:42;;;;;;;;;12.00;4.25;;;;;9.61;58.43;102288.06;5036909;28;46026;-65
2022/12/27 01:32:08;;;;;;;;;2.75;2.25;;;;;9.61;58.91;102288.06;5036443;28;45514;-65
2022/12/27 01:34:33;;;;;;;;;4.50;3.25;;;;;9.64;58.96;102288.22;5036693;28;45624;-65
2022/12/27 01:36:59;;;;;;;;;5.75;4.25;;;;;9.58;58.79;102278.09;5035768;28;46631;-66
2022/12/27 01:39:24;;;;;;;;;12.50;10.75;;;;;9.63;58.32;102295.28;5036580;28;45264;-62
2022/12/27 01:44:33;;;;;;;;;6.75;5.25;;;;;9.62;59.09;102293.47;5037061;28;45654;-65
2022/12/27 01:46:59;;;;;;;;;4.00;3.00;;;;;9.54;58.80;102290.38;5037027;28;45420;-66
2022/12/27 01:49:25;;;;;;;;;4.25;4.00;;;;;9.52;58.68;102289.38;5036123;28;45407;-66
2022/12/27 01:51:50;;;;;;;;;4.75;3.00;;;;;9.47;58.86;102282.88;5035509;28;45531;-65
2022/12/27 01:54:16;;;;;;;;;7.50;4.00;;;;;9.41;59.01;102269.19;5034328;28;45506;-64
2022/12/27 01:56:42;;;;;;;;;4.00;4.00;;;;;9.55;58.49;102305.56;5017667;28;46696;-65
2022/12/27 01:59:08;;;;;;;;;3.00;3.00;;;;;9.54;58.80;102314.38;5035705;28;45576;-65
2022/12/27 02:01:41;;;;;;;;;7.25;4.50;;;;;9.49;59.20;102304.31;5033343;28;45396;-65
2022/12/27 02:04:15;;;;;;;;;15.00;6.00;;;;;9.47;58.96;102303.28;5033306;28;45535;-66
2022/12/27 02:06:41;;;;;;;;;7.75;7.00;;;;;9.47;58.71;102312.22;5032893;28;46197;-64
2022/12/27 02:09:19;;;;;;;;;3.75;3.75;;;;;9.42;59.48;102305.72;5035220;28;45465;-64
2022/12/27 02:11:53;;;;;;;;;9.00;3.50;;;;;9.52;59.35;102320.44;5035278;28;45494;-63
2022/12/27 02:14:33;;;;;;;;;3.00;3.00;;;;;9.52;59.53;102328.47;5035381;28;45455;-65
2022/12/27 02:17:01;;;;;;;;;5.00;3.50;;;;;9.52;58.82;102325.78;5030397;28;46284;-64
2022/12/27 02:19:40;;;;;;;;;4.00;4.00;;;;;9.51;58.91;102327.56;5030824;28;45433;-64
2022/12/27 02:25:46;;;;;;;;;5.75;2.75;;;;;9.48;59.61;102321.13;5034356;28;45395;-65
2022/12/27 02:28:45;;;;;;;;;6.00;3.00;;;;;9.47;58.98;102320.22;5036636;28;45501;-66
2022/12/27 02:31:19;;;;;;;;;3.33;3.00;;;;;9.35;60.00;102295.50;5035267;28;45515;-65
2022/12/27 02:33:49;;;;;;;;;6.00;4.00;;;;;9.35;59.42;102309.75;5030979;28;45443;-65
2022/12/27 02:36:22;;;;;;;;;5.25;5.00;;;;;9.35;59.73;102314.19;5036232;28;45458;-63
2022/12/27 02:38:52;;;;;;;;;5.75;5.75;;;;;9.14;60.22;102282.81;5029029;28;45471;-65
2022/12/27 02:55:28;;;;;;;;;7.50;6.00;;;;;9.30;60.39;102311.25;5034649;28;45525;-64
2022/12/27 02:58:12;;;;;;;;;14.00;10.25;;;;;9.30;59.96;102321.00;5032080;28;45328;-66
2022/12/27 03:04:29;;;;;;;;;4.75;3.00;;;;;9.34;60.13;102326.59;5011690;28;45507;-67
2022/12/27 03:07:05;;;;;;;;;2.00;2.00;;;;;9.31;59.98;102337.09;5029997;28;45391;-64
2022/12/27 03:16:19;;;;;;;;;2.50;2.00;;;;;9.25;60.45;102339.41;4954086;28;45295;-65
2022/12/27 03:19:09;;;;;;;;;6.50;4.00;;;;;9.26;60.05;102335.00;5030987;28;45576;-63
2022/12/27 03:27:27;;;;;;;;;5.25;3.25;;;;;9.29;59.91;102322.75;5029366;28;45421;-64
2022/12/27 03:35:38;;;;;;;;;2.75;2.00;;;;;8.77;59.97;102230.03;5028075;28;45505;-64
2022/12/27 03:38:05;;;;;;;;;4.00;1.25;;;;;9.34;60.15;102339.03;5033769;28;45258;-65
2022/12/27 03:43:38;;;;;;;;;4.50;2.50;;;;;9.34;60.11;102333.69;5034360;28;45214;-64
2022/12/27 03:49:22;;;;;;;;;3.00;3.00;;;;;9.29;60.53;102341.44;5029905;28;45433;-65
2022/12/27 03:51:54;;;;;;;;;0.50;0.00;;;;;9.17;60.44;102324.72;5033080;28;45344;-64
2022/12/27 03:54:41;;;;;;;;;2.75;2.50;;;;;9.19;61.06;102339.97;5033994;28;45458;-63
2022/12/27 03:57:12;;;;;;;;;5.25;2.75;;;;;9.16;60.44;102336.22;5029209;28;46274;-64
2022/12/27 03:59:38;;;;;;;;;1.75;1.00;;;;;9.10;61.03;102327.88;5033696;28;45573;-65
2022/12/27 04:02:05;;;;;;;;;4.00;2.00;;;;;9.19;60.65;102348.00;5033669;28;45406;-64
2022/12/27 04:04:30;;;;;;;;;5.00;2.50;;;;;8.98;59.92;102302.31;5034169;28;45468;-63
2022/12/27 04:06:56;;;;;;;;;4.75;2.50;;;;;9.21;60.38;102332.97;5015691;28;45724;-65
2022/12/27 04:36:41;;;;;;;;;5.00;4.00;;;;;9.20;61.00;102339.13;5027357;28;45310;-65
2022/12/27 04:39:07;;;;;;;;;2.50;1.75;;;;;9.25;60.03;102336.75;5032017;28;46116;-65
2022/12/27 04:55:19;;;;;;;;;2.75;2.75;;;;;9.28;60.16;102334.25;5036780;28;45370;-65
2022/12/27 04:57:45;;;;;;;;;1.25;1.25;;;;;9.22;59.85;102317.88;5030531;28;45455;-65
2022/12/27 05:02:55;;;;;;;;;4.25;3.00;;;;;9.31;60.85;102321.09;5036209;28;45502;-64
2022/12/27 05:05:21;;;;;;;;;2.25;2.25;;;;;9.30;59.92;102319.25;5036587;28;45367;-64
2022/12/27 05:16:00;;;;;;;;;5.50;4.25;;;;;9.38;60.38;102335.69;5038200;28;45481;-64
2022/12/27 05:18:26;;;;;;;;;3.00;3.00;;;;;9.30;59.65;102324.56;5036411;28;45512;-67
2022/12/27 05:20:51;;;;;;;;;2.75;2.75;;;;;9.31;60.49;102323.75;5036244;28;46290;-66
2022/12/27 05:26:01;;;;;;;;;3.00;3.00;;;;;9.38;59.81;102335.69;5032882;28;45542;-65
2022/12/27 05:28:26;;;;;;;;;3.25;2.00;;;;;9.33;60.55;102331.84;5036172;28;45516;-65
2022/12/27 05:30:52;;;;;;;;;3.75;2.00;;;;;9.35;59.56;102323.09;5036272;28;46043;-66
2022/12/27 05:33:17;;;;;;;;;1.50;1.50;;;;;9.27;59.84;102320.81;5017953;28;45512;-65
2022/12/27 05:35:43;;;;;;;;;1.00;1.00;;;;;9.34;60.22;102326.59;5036242;28;45663;-66
2022/12/27 05:38:08;;;;;;;;;3.00;2.75;;;;;9.25;60.05;102312.72;5035646;28;45486;-64
2022/12/27 05:40:34;;;;;;;;;2.00;2.00;;;;;9.35;60.52;102317.75;5036485;28;45554;-66
2022/12/27 05:43:00;;;;;;;;;5.50;5.25;;;;;9.37;60.46;102323.19;5035816;28;45364;-66
2022/12/27 05:45:27;;;;;;;;;3.00;2.50;;;;;9.39;59.31;102334.88;5036413;28;45394;-64
2022/12/27 05:47:52;;;;;;;;;5.00;2.00;;;;;9.36;60.28;102322.28;5031721;28;45479;-66
2022/12/27 05:50:18;;;;;;;;;10.25;3.00;;;;;9.28;60.20;102301.34;5035714;28;45627;-64
2022/12/27 05:52:43;;;;;;;;;3.25;3.25;;;;;9.31;60.08;102297.09;5017682;28;45564;-65
2022/12/27 05:55:09;;;;;;;;;4.75;3.75;;;;;9.32;60.35;102309.59;5033079;28;45729;-65
2022/12/27 05:57:35;;;;;;;;;4.50;2.25;;;;;9.22;59.82;102302.84;5034724;28;45462;-64
2022/12/27 06:00:00;;;;;;;;;6.75;2.00;;;;;9.32;60.95;102309.59;5034171;28;45321;-66
2022/12/27 06:02:25;;;;;;;;;6.75;5.75;;;;;9.23;60.00;102293.97;5035714;28;45453;-63
2022/12/27 06:04:51;;;;;;;;;8.25;4.50;;;;;9.19;60.05;102280.41;5035718;28;45356;-65
2022/12/27 06:07:16;;;;;;;;;3.00;2.00;;;;;9.29;59.93;102297.81;5035716;28;45369;-65
2022/12/27 06:09:42;;;;;;;;;4.25;2.50;;;;;9.31;60.82;102297.09;5035274;28;46153;-64
2022/12/27 06:12:07;;;;;;;;;11.50;5.50;;;;;9.30;60.48;102305.91;5017248;28;45380;-65
2022/12/27 06:14:33;;;;;;;;;9.00;6.00;;;;;9.22;60.63;102293.88;5037324;28;45589;-65
2022/12/27 06:16:58;;;;;;;;;7.00;4.00;;;;;9.23;60.68;102291.31;5036137;28;45412;-64
2022/12/27 06:19:23;;;;;;;;;5.50;4.00;;;;;9.23;60.02;102299.31;5029741;28;46062;-65
2022/12/27 06:21:48;;;;;;;;;4.75;4.75;;;;;8.83;60.21;102226.84;5034265;28;45430;-64
2022/12/27 06:24:14;;;;;;;;;3.25;2.25;;;;;9.20;60.24;102293.81;5024104;28;50758;-65
2022/12/27 06:26:41;;;;;;;;;4.00;4.00;;;;;9.28;60.35;102307.56;5035771;28;45584;-65
2022/12/27 06:29:06;;;;;;;;;5.25;3.75;;;;;9.19;60.27;102291.06;5035391;28;46025;-64
2022/12/27 06:31:31;;;;;;;;;10.25;4.50;;;;;9.29;60.08;102316.50;5035349;28;45554;-65
2022/12/27 06:33:57;;;;;;;;;4.75;3.75;;;;;9.26;60.56;102309.25;5035214;28;45492;-65
2022/12/27 06:36:26;;;;;;;;;9.00;9.00;;;;;9.29;60.33;102308.47;5033212;28;46010;-66
2022/12/27 06:38:52;;;;;;;;;11.50;11.50;;;;;9.23;60.31;102295.75;5035213;28;47113;-66
2022/12/27 06:41:18;;;;;;;;;7.75;5.00;;;;;9.19;60.27;102296.41;5033501;28;45378;-66
2022/12/27 06:43:45;;;;;;;;;3.75;3.75;;;;;9.28;60.38;102315.59;5032836;28;45466;-67
2022/12/27 06:46:13;;;;;;;;;5.75;4.25;;;;;9.28;60.18;102309.34;5014660;28;45740;-64
2022/12/27 06:48:39;;;;;;;;;3.25;3.00;;;;;9.30;60.62;102316.56;5013821;28;46593;-65
2022/12/27 06:51:06;;;;;;;;;2.75;2.75;;;;;9.21;60.14;102290.31;5031837;28;45343;-65
2022/12/27 06:53:32;;;;;;;;;13.25;11.75;;;;;9.23;60.07;102296.66;5031423;28;45291;-64
2022/12/27 06:56:01;;;;;;;;;9.25;5.00;;;;;9.31;59.72;102312.19;5034236;28;45617;-65
2022/12/27 06:58:26;;;;;;;;;3.00;3.00;;;;;9.26;60.14;102303.91;5030347;28;46853;-65
2022/12/27 07:00:52;;;;;;;;;4.00;4.00;;;;;9.30;60.51;102302.34;5034493;28;45361;-65
2022/12/27 07:03:17;;;;;;;;;10.00;9.50;;;;;9.22;60.19;102292.16;5030389;28;45462;-65
2022/12/27 07:05:42;;;;;;;;;6.75;4.00;;;;;9.28;60.42;102304.91;5035175;28;45442;-63
2022/12/27 07:08:08;;;;;;;;;4.50;4.00;;;;;9.29;60.24;102305.81;5034509;28;45517;-65
2022/12/27 07:10:35;;;;;;;;;12.50;6.50;;;;;9.21;59.90;102303.66;5029104;28;45466;-65
2022/12/27 07:13:00;;;;;;;;;9.75;4.00;;;;;9.27;60.21;102307.50;5035528;28;45498;-65
2022/12/27 07:15:29;;;;;;;;;13.00;6.75;;;;;9.19;60.21;102294.66;5025788;28;45305;-68
2022/12/27 07:17:54;;;;;;;;;8.50;7.25;;;;;9.32;60.51;102320.28;5029699;28;46726;-64
2022/12/27 07:20:20;;;;;;;;;9.25;9.25;;;;;9.34;60.13;102312.38;5034194;28;45471;-65
2022/12/27 07:22:45;;;;;;;;;18.00;13.00;;;;;9.35;60.48;102324.84;5033917;28;45974;-65
2022/12/27 07:25:11;;;;;;;;;10.25;6.50;;;;;9.39;60.77;102324.22;5032590;28;45512;-65
2022/12/27 07:27:36;;;;;;;;;9.75;9.75;;;;;9.36;60.23;102330.28;5033937;28;45448;-64
2022/12/27 07:30:05;;;;;;;;;10.50;10.00;;;;;9.42;60.61;102332.38;5033943;28;45667;-64
2022/12/27 07:32:30;;;;;;;;;8.75;5.00;;;;;9.35;60.13;102312.41;5033944;28;45505;-65
2022/12/27 07:34:56;;;;;;;;;7.75;6.25;;;;;9.40;59.17;102323.34;5034097;28;45302;-66
2022/12/27 07:37:21;;;;;;;;;8.00;6.50;;;;;9.42;59.53;102327.06;5032704;28;45398;-65
2022/12/27 07:39:46;;;;;;;;;8.75;6.00;;;;;9.44;59.82;102328.03;5034086;28;45535;-65
2022/12/27 07:42:12;;;;;;;;;6.25;6.00;;;;;9.45;59.55;102320.94;5033368;28;45422;-66
2022/12/27 07:44:37;;;;;;;;;7.00;5.50;;;;;9.42;59.30;102327.06;5034768;28;45419;-65
2022/12/27 07:47:03;;;;;;;;;4.75;4.00;;;;;9.29;59.34;102309.44;4999460;28;46110;-65
2022/12/27 07:49:28;;;;;;;;;4.00;4.00;;;;;9.37;60.10;102333.84;5033748;28;45426;-65
2022/12/27 07:51:53;;;;;;;;;6.00;6.00;;;;;9.27;60.13;102320.81;5034324;28;45615;-66
2022/12/27 07:54:19;;;;;;;;;9.00;7.00;;;;;9.38;60.22;102336.59;5033968;28;45344;-64
2022/12/27 07:56:44;;;;;;;;;3.00;3.00;;;;;9.34;60.04;102320.38;5035013;28;45343;-67
2022/12/27 07:59:12;;;;;;;;;4.00;4.00;;;;;9.41;59.61;102331.44;5016376;28;45403;-65
2022/12/27 08:04:21;;;;;;;;;6.50;4.00;;;;;9.33;58.87;102306.09;5029858;28;45379;-63
2022/12/27 08:06:47;;;;;;;;;4.25;3.00;;;;;9.47;59.50;102324.63;5032933;28;46339;-65
2022/12/27 08:09:24;;;;;;;;;9.50;5.50;;;;;9.41;58.66;102320.78;5025136;28;45477;-65
2022/12/27 08:11:50;;;;;;;;;5.00;5.00;;;;;9.45;59.10;102329.88;5027348;28;45357;-65
2022/12/27 08:14:16;;;;;;;;;10.50;5.00;;;;;9.44;59.30;102332.44;5015508;28;45338;-64
2022/12/27 08:16:41;;;;;;;;;5.00;4.00;;;;;9.34;59.04;102317.69;5033223;28;45469;-64
2022/12/27 08:19:06;;;;;;;;;12.00;7.25;;;;;9.48;59.36;102337.13;5028370;28;45371;-63
2022/12/27 08:21:32;;;;;;;;;8.00;5.50;;;;;9.51;59.44;102334.66;5014633;28;45456;-64
2022/12/27 08:23:57;;;;;;;;;11.50;8.25;;;;;9.35;59.50;102299.09;5036528;28;45545;-64
2022/12/27 08:26:23;;;;;;;;;3.25;3.25;;;;;9.52;59.68;102340.06;5018249;28;56683;-65
2022/12/27 08:28:48;;;;;;;;;11.75;9.00;;;;;9.49;59.62;102342.56;5018523;28;45879;-63
2022/12/27 08:31:14;;;;;;;;;6.00;5.00;;;;;9.49;59.60;102328.31;5037279;28;45600;-65
2022/12/27 08:33:40;;;;;;;;;8.25;5.50;;;;;9.49;59.78;102326.56;5036879;28;45410;-65
2022/12/27 08:36:11;;;;;;;;;8.75;7.00;;;;;9.57;60.27;102348.34;5036589;28;45537;-65
2022/12/27 08:38:36;;;;;;;;;11.50;9.25;;;;;9.47;59.76;102322.88;5036007;28;45316;-66
2022/12/27 08:41:02;;;;;;;;;7.75;6.50;;;;;9.50;59.88;102331.06;5037234;28;45538;-64
2022/12/27 08:43:30;;;;;;;;;13.75;13.50;;;;;9.44;60.03;102338.72;5034053;28;45541;-65
2022/12/27 08:46:01;;;;;;;;;7.50;5.00;;;;;9.46;60.14;102357.47;5036601;28;45515;-64
2022/12/27 08:48:27;;;;;;;;;12.25;9.50;;;;;9.45;59.81;102350.28;5034117;28;45436;-64
2022/12/27 08:50:53;;;;;;;;;12.50;7.75;;;;;9.32;59.71;102333.63;5034018;28;45466;-65
2022/12/27 08:53:18;;;;;;;;;7.75;6.75;;;;;9.33;60.71;102326.53;5032136;28;45455;-64
2022/12/27 08:55:44;;;;;;;;;8.75;7.25;;;;;9.50;59.67;102357.75;5036111;28;46777;-64
2022/12/27 08:58:10;;;;;;;;;12.25;8.50;;;;;9.48;60.09;102358.47;5036271;28;45379;-65
2022/12/27 09:00:36;;;;;;;;;15.00;12.00;;;;;9.47;60.01;102357.56;5036195;28;45541;-65
2022/12/27 09:03:01;;;;;;;;;13.50;9.50;;;;;8.94;59.50;102272.75;5031963;28;45562;-65
2022/12/27 09:05:28;;;;;;;;;18.75;7.00;;;;;9.37;60.45;102357.84;5031179;28;45517;-66
2022/12/27 09:07:54;;;;;;;;;10.75;9.75;;;;;9.44;60.58;102365.41;5016905;28;45626;-65
2022/12/27 09:10:21;;;;;;;;;10.50;7.75;;;;;9.44;60.48;102375.13;5031790;28;45547;-66
2022/12/27 09:12:46;;;;;;;;;11.25;8.25;;;;;9.41;59.81;102367.88;5036257;28;45625;-64
2022/12/27 09:15:12;;;;;;;;;12.75;7.50;;;;;9.43;60.28;102367.97;5035919;28;46200;-66
2022/12/27 09:17:37;;;;;;;;;13.00;9.50;;;;;9.45;60.08;102376.97;5030419;28;45415;-65
2022/12/27 09:20:04;;;;;;;;;11.00;11.00;;;;;9.45;60.39;102369.88;5035905;28;45415;-66
2022/12/27 09:22:29;;;;;;;;;10.75;9.50;;;;;9.51;60.45;102374.66;5029424;28;45505;-64
2022/12/27 09:24:55;;;;;;;;;13.50;11.75;;;;;9.53;59.69;102373.00;5035860;28;45912;-66
2022/12/27 09:27:20;;;;;;;;;12.50;9.00;;;;;9.49;59.79;102358.56;5029043;28;45323;-65
2022/12/27 09:29:45;;;;;;;;;12.75;8.75;;;;;9.40;59.76;102334.97;5034479;28;45491;-65
2022/12/27 09:32:11;;;;;;;;;10.50;8.25;;;;;9.57;60.05;102367.03;5035186;28;46709;-66
2022/12/27 09:34:36;;;;;;;;;11.25;7.75;;;;;9.15;59.90;102294.38;5033729;28;53404;-66
2022/12/27 09:37:01;;;;;;;;;10.25;9.00;;;;;9.54;60.09;102353.50;5033861;28;45360;-66
2022/12/27 09:39:27;;;;;;;;;15.50;10.00;;;;;9.66;59.24;102380.84;5034431;28;45571;-64
2022/12/27 09:42:10;;;;;;;;;11.00;6.00;;;;;9.66;59.20;102377.28;5035644;28;45464;-66
2022/12/27 09:44:51;;;;;;;;;8.75;8.75;;;;;9.67;58.91;102377.38;5035380;28;45578;-67
2022/12/27 09:47:33;;;;;;;;;9.25;7.00;;;;;9.51;59.27;102350.66;5035603;28;45289;-66
2022/12/27 09:50:17;;;;;;;;;7.75;5.75;;;;;9.68;59.43;102379.19;5032268;28;45337;-66
2022/12/27 09:52:56;;;;;;;;;8.75;7.00;;;;;9.68;59.06;102378.28;5035170;28;45521;-65
2022/12/27 09:55:36;;;;;;;;;8.50;7.00;;;;;9.72;59.20;102378.53;5035060;28;46242;-66
2022/12/27 09:58:14;;;;;;;;;9.25;5.50;;;;;9.70;58.38;102371.28;5016605;28;45569;-66
2022/12/27 10:00:40;;;;;;;;;6.50;6.00;;;;;9.57;58.47;102343.00;5034794;28;45375;-66
2022/12/27 10:03:05;;;;;;;;;12.00;9.25;;;;;9.71;58.64;102358.00;5036115;28;45217;-66
2022/12/27 10:05:35;;;;;;;;;6.00;6.00;;;;;9.86;58.06;102381.97;5036025;28;46263;-66
2022/12/27 10:08:29;;;;;;;;;9.75;7.00;;;;;9.86;58.16;102376.63;5027584;28;45651;-65
2022/12/27 10:11:03;;;;;;;;;6.00;3.75;;;;;9.89;57.86;102373.22;5035758;28;45385;-67
2022/12/27 10:13:45;;;;;;;;;15.00;9.50;;;;;9.82;58.23;102357.72;5035457;28;45345;-66
2022/12/27 10:16:23;;;;;;;;;9.75;7.50;;;;;9.92;57.69;102366.28;5030917;28;46605;-65
2022/12/27 10:18:48;;;;;;;;;7.75;7.75;;;;;9.95;57.71;102360.22;5034939;28;45650;-66
2022/12/27 10:21:22;;;;;;;;;7.25;6.50;;;;;9.94;57.67;102361.94;5034949;28;45425;-66
2022/12/27 10:23:54;;;;;;;;;7.50;6.50;;;;;9.91;57.70;102350.19;5017462;28;45314;-66
2022/12/27 10:26:20;;;;;;;;;7.75;6.00;;;;;9.88;57.67;102348.28;5035229;28;45445;-67
2022/12/27 10:29:22;;;;;;;;;10.50;9.50;;;;;9.84;57.31;102364.94;5034662;28;45447;-65
2022/12/27 10:31:47;;;;;;;;;4.75;4.75;;;;;9.76;57.22;102335.16;5024774;28;45614;-66
2022/12/27 10:34:15;;;;;;;;;7.00;6.00;;;;;9.60;56.56;102287.09;5035123;28;45361;-66
2022/12/27 10:36:43;;;;;;;;;11.25;9.75;;;;;9.89;56.76;102338.53;5032723;28;46269;-66
2022/12/27 10:39:18;;;;;;;;;6.00;5.00;;;;;9.93;56.88;102330.78;5035051;28;45511;-65
2022/12/27 10:42:04;;;;;;;;;13.50;9.50;;;;;10.08;57.33;102345.75;5032890;28;45658;-66
2022/12/27 10:44:29;;;;;;;;;13.50;6.75;;;;;10.16;56.89;102341.75;5033971;28;45562;-65
2022/12/27 10:46:55;;;;;;;;;11.75;7.75;;;;;10.21;57.29;102339.34;5031703;28;45601;-65
2022/12/27 10:49:25;;;;;;;;;6.33;5.33;;;;;10.18;56.40;102341.84;5035886;28;45492;-65
2022/12/27 10:51:54;;;;;;;;;5.00;3.75;;;;;10.11;56.15;102329.91;5035273;28;45422;-66
2022/12/27 10:54:28;;;;;;;;;6.00;5.50;;;;;10.16;56.40;102341.75;5016457;28;45809;-67
2022/12/27 10:57:23;;;;;;;;;8.50;5.00;;;;;10.26;55.82;102340.50;5030705;28;46589;-68
2022/12/27 11:00:09;;;;;;;;;4.50;4.50;;;;;10.27;56.48;102350.34;5035250;28;45552;-66
2022/12/27 11:02:48;;;;;;;;;5.00;3.50;;;;;10.31;55.99;102350.59;5032436;28;45431;-66
2022/12/27 11:05:20;;;;;;;;;6.50;5.75;;;;;10.32;55.32;102340.84;5034776;28;45570;-66
2022/12/27 11:07:45;;;;;;;;;11.00;7.75;;;;;10.38;54.95;102346.53;5034667;28;45472;-65
2022/12/27 11:10:20;;;;;;;;;7.75;7.75;;;;;10.34;55.13;102344.53;5016071;28;45415;-67
2022/12/27 11:13:05;;;;;;;;;10.00;7.00;;;;;10.49;55.08;102339.06;5034151;28;45510;-64
2022/12/27 11:15:35;;;;;;;;;11.75;8.00;;;;;10.53;54.83;102334.81;5034291;28;45521;-66
2022/12/27 11:18:10;;;;;;;;;7.75;6.50;;;;;10.55;54.64;102336.72;5033716;28;45429;-65
2022/12/27 11:20:51;;;;;;;;;5.00;4.33;;;;;10.54;54.88;102321.50;5029961;28;45597;-67
2022/12/27 11:23:20;;;;;;;;;10.00;6.00;;;;;10.66;54.94;102326.59;5003174;28;45400;-66
2022/12/27 11:25:54;;;;;;;;;6.75;6.00;;;;;10.70;54.48;102318.78;5027300;28;45561;-67
2022/12/27 11:28:27;;;;;;;;;6.00;4.50;;;;;10.64;53.46;102302.47;5033273;28;45334;-66
2022/12/27 11:31:00;;;;;;;;;7.00;5.50;;;;;10.74;52.67;102298.50;5033889;28;45363;-66
2022/12/27 11:33:48;;;;;;;;;4.00;4.00;;;;;10.80;52.45;102297.88;5034018;28;45475;-65
2022/12/27 11:36:21;;;;;;;;;3.67;2.00;;;;;10.80;52.41;102276.50;5034370;28;45417;-66
2022/12/27 11:38:49;;;;;;;;;4.00;4.00;;;;;10.85;51.88;102277.63;5032680;28;46648;-68
2022/12/27 11:41:22;;;;;;;;;5.25;3.75;;;;;10.90;52.25;102270.75;5033639;28;45390;-66
2022/12/27 11:44:07;;;;;;;;;7.00;5.75;;;;;10.94;51.72;102261.13;5034027;28;45237;-66
2022/12/27 11:46:47;;;;;;;;;6.00;6.00;;;;;10.98;51.86;102255.09;5015483;28;45368;-66
2022/12/27 11:49:23;;;;;;;;;7.50;7.50;;;;;10.96;51.70;102249.69;5033756;28;45983;-66
2022/12/27 11:52:13;;;;;;;;;9.25;7.75;;;;;11.06;52.25;102259.06;5013264;28;45674;-66
2022/12/27 11:55:00;;;;;;;;;7.25;7.25;;;;;11.18;50.78;102266.75;5027725;28;45351;-64
2022/12/27 11:57:47;;;;;;;;;9.25;8.00;;;;;11.22;51.59;102263.41;5014419;28;45585;-67
2022/12/27 12:00:21;;;;;;;;;7.67;6.00;;;;;11.26;51.04;102270.72;5027291;28;45489;-67
2022/12/27 12:03:24;;;;;;;;;11.00;9.25;;;;;11.30;50.86;102269.09;5032640;28;45523;-66
2022/12/27 12:05:56;;;;;;;;;13.00;10.25;;;;;11.34;51.12;102258.63;5032799;28;45470;-66
2022/12/27 12:08:43;;;;;;;;;7.75;7.00;;;;;11.40;51.09;102266.03;5033661;28;45582;-66
2022/12/27 12:11:21;;;;;;;;;12.25;11.00;;;;;11.37;50.78;102248.06;5033509;28;46224;-67
2022/12/27 12:14:15;;;;;;;;;9.00;7.75;;;;;11.43;50.92;102266.16;5032914;28;45480;-66
2022/12/27 12:16:58;;;;;;;;;10.75;9.75;;;;;11.49;50.49;102270.91;5017530;28;45640;-65
2022/12/27 12:19:47;;;;;;;;;10.00;6.50;;;;;11.54;50.60;102267.59;5028329;28;45445;-66
2022/12/27 12:22:24;;;;;;;;;10.75;9.00;;;;;11.59;51.18;102267.81;5033058;28;45361;-66
2022/12/27 12:25:08;;;;;;;;;6.75;6.75;;;;;11.62;51.02;102271.53;5015207;28;45732;-65
2022/12/27 12:28:03;;;;;;;;;15.75;9.00;;;;;11.67;50.75;102257.47;5028008;28;45485;-66
2022/12/27 12:30:50;;;;;;;;;8.50;7.50;;;;;11.69;50.67;102250.41;5033169;28;45288;-65
2022/12/27 12:33:34;;;;;;;;;9.25;7.50;;;;;11.72;51.58;102243.44;5031352;28;45484;-65
2022/12/27 12:36:19;;;;;;;;;12.50;10.50;;;;;11.77;51.17;102240.97;5028455;28;45710;-66
2022/12/27 12:38:57;;;;;;;;;7.25;7.25;;;;;11.76;51.00;102231.09;5032609;28;45477;-64
2022/12/27 12:41:31;;;;;;;;;14.75;10.00;;;;;11.82;50.55;102222.44;5014876;28;45507;-65
2022/12/27 12:44:25;;;;;;;;;5.67;5.33;;;;;11.82;49.94;102215.31;5033313;28;46415;-66
2022/12/27 12:46:53;;;;;;;;;9.33;4.00;;;;;11.84;49.14;102223.41;5032047;28;45390;-66
2022/12/27 12:49:49;;;;;;;;;7.00;7.00;;;;;11.83;49.06;102224.25;5032903;28;45572;-67
2022/12/27 12:52:48;;;;;;;;;6.00;3.00;;;;;11.81;48.74;102210.78;5024166;28;45462;-66
2022/12/27 12:55:32;;;;;;;;;4.00;2.00;;;;;11.78;48.63;102205.34;5031140;28;45589;-66
2022/12/27 12:57:58;;;;;;;;;13.00;11.50;;;;;11.77;49.21;102204.41;5032540;28;45449;-66
2022/12/27 13:00:24;;;;;;;;;4.33;3.00;;;;;11.77;48.45;102201.72;5032538;28;45304;-65
2022/12/27 13:03:14;;;;;;;;;3.00;3.00;;;;;11.77;48.89;102190.09;5028192;28;45518;-66
2022/12/27 13:05:50;;;;;;;;;8.00;5.33;;;;;11.78;47.90;102186.59;5014156;28;47473;-66
2022/12/27 13:08:30;;;;;;;;;6.33;3.33;;;;;11.82;48.78;102185.88;5032362;28;45483;-66
2022/12/27 13:11:17;;;;;;;;;5.67;4.67;;;;;11.82;49.00;102183.19;5035417;28;45698;-65
2022/12/27 13:14:07;;;;;;;;;3.00;3.00;;;;;11.82;48.66;102182.28;5035921;28;45376;-64
2022/12/27 13:16:45;;;;;;;;;5.00;3.00;;;;;11.71;49.27;102166.63;5035715;28;45693;-64
2022/12/27 13:19:10;;;;;;;;;8.00;4.67;;;;;11.77;49.32;102166.00;5017621;28;45557;-64
2022/12/27 13:22:07;;;;;;;;;6.00;3.00;;;;;11.74;49.64;102172.13;5035834;28;45713;-65
2022/12/27 13:25:09;;;;;;;;;3.33;3.33;;;;;11.75;49.82;102165.03;5032384;28;45281;-64
2022/12/27 13:27:43;;;;;;;;;3.00;3.00;;;;;11.75;50.74;102165.94;5011666;28;46203;-66
2022/12/27 13:30:27;;;;;;;;;6.00;4.67;;;;;11.71;50.81;102166.63;5035996;28;45545;-67
2022/12/27 13:33:01;;;;;;;;;7.00;5.33;;;;;11.72;50.56;102159.53;5037463;28;45494;-65